createdAt,value
2023-01-28T00:01:20.787Z,101392.11
2023-01-28T00:06:27.879Z,101393.21
2023-01-28T00:11:34.530Z,101392.89
2023-01-28T00:16:41.606Z,101391.02
2023-01-28T00:21:47.979Z,101393.36
2023-01-28T00:26:54.948Z,101393.38
2023-01-28T00:32:01.628Z,101389.92
2023-01-28T00:37:09.765Z,101388.77
2023-01-28T00:42:16.482Z,101390.98
2023-01-28T00:47:22.987Z,101391.20
2023-01-28T00:52:30.382Z,101388.41
2023-01-28T00:57:37.292Z,101384.66
2023-01-28T01:02:45.766Z,101383.77
2023-01-28T01:07:52.951Z,101383.56
2023-01-28T01:12:59.758Z,101380.88
2023-01-28T01:18:07.617Z,101383.56
2023-01-28T01:23:13.854Z,101377.75
2023-01-28T01:28:20.991Z,101378.27
2023-01-28T01:33:28.371Z,101377.20
2023-01-28T01:38:36.902Z,101376.40
2023-01-28T01:43:50.143Z,101380.91
2023-01-28T01:49:00.603Z,101376.61
2023-01-28T01:54:09.533Z,101374.48
2023-01-28T01:59:22.591Z,101379.98
2023-01-28T02:04:31.768Z,101375.83
2023-01-28T02:09:41.571Z,101376.20
2023-01-28T02:14:54.344Z,101378.85
2023-01-28T02:20:02.874Z,101385.47
2023-01-28T02:25:35.084Z,101386.88
2023-01-28T02:30:47.549Z,101387.35
2023-01-28T02:35:56.763Z,101392.96
2023-01-28T02:41:10.266Z,101390.23
2023-01-28T02:46:43.718Z,101384.70
2023-01-28T02:52:14.896Z,101385.35
2023-01-28T02:57:35.540Z,101387.12
2023-01-28T03:02:54.960Z,101388.30
2023-01-28T03:08:23.531Z,101393.95
2023-01-28T03:13:49.476Z,101391.90
2023-01-28T03:19:16.107Z,101394.60
2023-01-28T03:24:46.862Z,101394.14
2023-01-28T03:30:15.647Z,101398.16
2023-01-28T03:35:47.451Z,101397.13
2023-01-28T03:40:58.084Z,101388.06
2023-01-28T03:46:06.520Z,101388.80
2023-01-28T03:51:13.413Z,101393.84
2023-01-28T03:56:24.530Z,101395.04
2023-01-28T04:01:31.119Z,101394.67
2023-01-28T04:06:38.632Z,101394.82
2023-01-28T04:12:23.729Z,101395.93
2023-01-28T04:17:31.388Z,101394.85
2023-01-28T04:22:39.775Z,101397.15
2023-01-28T04:27:48.960Z,101392.56
2023-01-28T04:33:01.198Z,101395.16
2023-01-28T04:38:32.310Z,101399.59
2023-01-28T04:43:46.720Z,101399.55
2023-01-28T04:49:01.030Z,101402.29
2023-01-28T04:54:21.503Z,101402.27
2023-01-28T04:59:29.095Z,101406.07
2023-01-28T05:04:37.101Z,101410.73
2023-01-28T05:09:44.044Z,101402.85
2023-01-28T05:14:52.704Z,101405.45
2023-01-28T05:20:01.491Z,101406.84
2023-01-28T05:25:10.693Z,101410.05
2023-01-28T05:30:17.869Z,101412.02
2023-01-28T05:35:24.532Z,101416.70
2023-01-28T05:40:31.223Z,101423.63
2023-01-28T05:45:39.363Z,101420.76
2023-01-28T05:50:52.715Z,101423.65
2023-01-28T05:56:01.306Z,101427.32
2023-01-28T06:01:10.344Z,101424.06
2023-01-28T06:06:21.459Z,101427.23
2023-01-28T06:11:28.422Z,101434.98
2023-01-28T06:16:41.512Z,101437.48
2023-01-28T06:22:03.811Z,101443.91
2023-01-28T06:27:12.371Z,101444.26
2023-01-28T06:32:18.500Z,101449.73
2023-01-28T06:37:26.772Z,101449.97
2023-01-28T06:42:36.156Z,101455.14
2023-01-28T06:47:44.808Z,101460.91
2023-01-28T06:52:53.981Z,101459.61
2023-01-28T06:58:01.364Z,101463.41
2023-01-28T07:03:07.963Z,101467.80
2023-01-28T07:08:16.136Z,101465.91
2023-01-28T07:13:23.055Z,101469.91
2023-01-28T07:18:29.313Z,101474.29
2023-01-28T07:23:36.615Z,101474.90
2023-01-28T07:28:43.447Z,101477.67
2023-01-28T07:33:49.575Z,101475.94
2023-01-28T07:38:56.230Z,101480.80
2023-01-28T07:44:02.462Z,101489.14
2023-01-28T07:49:08.749Z,101489.80
2023-01-28T07:54:17.528Z,101489.49
2023-01-28T07:59:24.370Z,101487.89
2023-01-28T08:04:34.752Z,101488.64
2023-01-28T08:10:01.144Z,101484.65
2023-01-28T08:15:47.287Z,101483.33
2023-01-28T08:21:28.157Z,101485.29
2023-01-28T08:26:56.497Z,101485.10
2023-01-28T08:32:18.466Z,101487.56
2023-01-28T08:37:24.353Z,101482.23
2023-01-28T08:42:30.188Z,101480.96
2023-01-28T08:47:35.846Z,101486.42
2023-01-28T08:52:44.210Z,101484.92
2023-01-28T08:57:49.756Z,101490.02
2023-01-28T09:02:55.550Z,101491.61
2023-01-28T09:08:03.889Z,101495.74
2023-01-28T09:13:11.484Z,101503.38
2023-01-28T09:18:17.025Z,101512.15
2023-01-28T09:23:22.548Z,101517.14
2023-01-28T09:28:28.331Z,101515.47
2023-01-28T09:33:35.321Z,101516.84
2023-01-28T09:38:41.012Z,101517.20
2023-01-28T09:44:00.327Z,101516.64
2023-01-28T09:49:14.764Z,101515.60
2023-01-28T09:54:30.059Z,101514.86
2023-01-28T09:59:37.224Z,101517.89
2023-01-28T10:05:15.287Z,101510.09
2023-01-28T10:10:26.815Z,101509.02
2023-01-28T10:15:57.334Z,101503.38
2023-01-28T10:21:13.244Z,101498.36
2023-01-28T10:26:30.189Z,101502.98
2023-01-28T10:31:41.997Z,101496.44
2023-01-28T10:36:48.325Z,101496.34
2023-01-28T10:41:58.869Z,101491.56
2023-01-28T10:47:10.605Z,101494.83
2023-01-28T10:52:16.990Z,101485.86
2023-01-28T10:57:23.607Z,101487.95
2023-01-28T11:02:32.729Z,101486.01
2023-01-28T11:07:38.736Z,101486.08
2023-01-28T11:12:54.947Z,101476.42
2023-01-28T11:18:04.051Z,101474.83
2023-01-28T11:23:21.309Z,101473.23
2023-01-28T11:28:27.918Z,101473.40
2023-01-28T11:33:37.274Z,101468.36
2023-01-28T11:38:52.409Z,101464.04
2023-01-28T11:44:00.482Z,101457.83
2023-01-28T11:49:18.999Z,101456.18
2023-01-28T11:54:45.282Z,101455.80
2023-01-28T12:00:32.643Z,101454.03
2023-01-28T12:05:52.048Z,101456.48
2023-01-28T12:11:44.211Z,101456.30
2023-01-28T12:17:03.692Z,101453.86
2023-01-28T12:22:34.640Z,101453.77
2023-01-28T12:27:51.034Z,101449.92
2023-01-28T12:33:25.819Z,101448.98
2023-01-28T12:38:40.688Z,101449.66
2023-01-28T12:43:53.986Z,101449.52
2023-01-28T12:49:05.373Z,101446.70
2023-01-28T12:54:13.338Z,101450.23
2023-01-28T12:59:25.461Z,101455.94
2023-01-28T13:04:37.795Z,101454.77
2023-01-28T13:09:53.252Z,101449.20
2023-01-28T13:14:59.900Z,101452.73
2023-01-28T13:20:16.754Z,101451.44
2023-01-28T13:25:27.961Z,101452.35
2023-01-28T13:30:36.251Z,101455.63
2023-01-28T13:35:43.992Z,101456.37
2023-01-28T13:40:58.108Z,101457.21
2023-01-28T13:46:06.814Z,101456.36
2023-01-28T13:51:18.244Z,101459.02
2023-01-28T13:56:40.936Z,101455.58
2023-01-28T14:02:01.368Z,101453.80
2023-01-28T14:07:20.370Z,101454.13
2023-01-28T14:12:58.857Z,101449.16
2023-01-28T14:18:15.369Z,101451.14
2023-01-28T14:23:22.753Z,101453.55
2023-01-28T14:28:40.865Z,101453.73
2023-01-28T14:33:46.906Z,101452.19
2023-01-28T14:38:55.872Z,101454.61
2023-01-28T14:44:02.098Z,101453.63
2023-01-28T14:49:28.929Z,101451.59
2023-01-28T14:54:47.395Z,101456.39
2023-01-28T14:59:55.063Z,101455.90
2023-01-28T15:05:11.956Z,101457.82
2023-01-28T15:10:21.267Z,101462.14
2023-01-28T15:15:33.422Z,101465.70
2023-01-28T15:20:39.160Z,101470.64
2023-01-28T15:25:45.875Z,101476.16
2023-01-28T15:30:51.597Z,101483.27
2023-01-28T15:35:59.025Z,101481.54
2023-01-28T15:41:07.122Z,101484.45
2023-01-28T15:46:14.030Z,101485.22
2023-01-28T15:51:26.526Z,101485.73
2023-01-28T15:56:32.993Z,101485.61
2023-01-28T16:01:38.856Z,101483.43
2023-01-28T16:06:46.920Z,101483.27
2023-01-28T16:11:53.227Z,101486.98
2023-01-28T16:16:59.705Z,101488.91
2023-01-28T16:22:06.695Z,101495.36
2023-01-28T16:27:23.827Z,101496.03
2023-01-28T16:32:35.773Z,101494.10
2023-01-28T16:37:42.446Z,101489.57
2023-01-28T16:42:49.231Z,101498.34
2023-01-28T16:47:55.234Z,101497.85
2023-01-28T16:53:01.310Z,101501.05
2023-01-28T16:58:08.987Z,101504.80
2023-01-28T17:03:14.569Z,101503.39
2023-01-28T17:08:20.302Z,101498.83
2023-01-28T17:13:26.235Z,101499.17
2023-01-28T17:18:32.141Z,101491.17
2023-01-28T17:23:38.116Z,101492.32
2023-01-28T17:28:44.600Z,101494.69
2023-01-28T17:33:55.707Z,101496.30
2023-01-28T17:39:01.449Z,101501.27
2023-01-28T17:44:07.499Z,101509.83
2023-01-28T17:49:16.217Z,101506.20
2023-01-28T17:54:23.384Z,101515.34
2023-01-28T17:59:29.222Z,101511.10
2023-01-28T18:04:39.537Z,101505.64
2023-01-28T18:09:46.119Z,101513.00
2023-01-28T18:14:51.912Z,101525.46
2023-01-28T18:19:57.624Z,101532.76
2023-01-28T18:25:03.524Z,101531.30
2023-01-28T18:30:11.452Z,101541.89
2023-01-28T18:35:17.725Z,101550.29
2023-01-28T18:40:27.956Z,101550.36
2023-01-28T18:45:37.428Z,101543.02
2023-01-28T18:50:49.299Z,101537.55
2023-01-28T18:55:55.367Z,101539.23
2023-01-28T19:01:06.296Z,101533.27
2023-01-28T19:06:12.790Z,101529.05
2023-01-28T19:11:18.340Z,101525.58
2023-01-28T19:16:25.180Z,101523.50
2023-01-28T19:21:33.925Z,101529.67
2023-01-28T19:26:39.990Z,101532.73
2023-01-28T19:31:49.165Z,101537.38
2023-01-28T19:36:55.401Z,101537.84
2023-01-28T19:42:02.287Z,101538.14
2023-01-28T19:47:08.492Z,101547.05
2023-01-28T19:52:14.290Z,101554.48
2023-01-28T19:57:19.850Z,101553.59
2023-01-28T20:02:25.664Z,101555.17
2023-01-28T20:07:31.456Z,101557.45
2023-01-28T20:12:36.975Z,101562.95
2023-01-28T20:17:42.953Z,101554.05
2023-01-28T20:22:48.709Z,101555.09
2023-01-28T20:27:54.636Z,101556.34
2023-01-28T20:33:00.251Z,101558.02
2023-01-28T20:38:06.308Z,101568.89
2023-01-28T20:43:11.996Z,101567.67
2023-01-28T20:48:17.580Z,101570.18
2023-01-28T20:53:23.375Z,101578.02
2023-01-28T20:58:29.335Z,101574.17
2023-01-28T21:03:34.966Z,101577.52
2023-01-28T21:08:40.989Z,101586.55
2023-01-28T21:13:46.821Z,101586.51
2023-01-28T21:18:52.882Z,101582.42
2023-01-28T21:24:00.623Z,101582.59
2023-01-28T21:29:06.929Z,101575.92
2023-01-28T21:34:13.491Z,101559.91
2023-01-28T21:39:19.173Z,101557.85
2023-01-28T21:44:24.847Z,101560.13
2023-01-28T21:49:30.811Z,101556.81
2023-01-28T21:54:36.681Z,101549.41
2023-01-28T21:59:42.414Z,101545.27
2023-01-28T22:04:50.362Z,101537.85
2023-01-28T22:09:56.482Z,101532.77
2023-01-28T22:15:02.037Z,101526.80
2023-01-28T22:20:10.983Z,101521.51
2023-01-28T22:25:16.758Z,101525.96
2023-01-28T22:30:22.695Z,101526.23
2023-01-28T22:35:28.667Z,101524.13
2023-01-28T22:40:35.908Z,101532.63
2023-01-28T22:45:42.079Z,101535.63
2023-01-28T22:50:47.938Z,101533.33
2023-01-28T22:55:56.216Z,101548.08
2023-01-28T23:01:01.895Z,101559.27
2023-01-28T23:06:08.367Z,101573.13
2023-01-28T23:11:15.289Z,101576.91
2023-01-28T23:16:40.204Z,101573.05
2023-01-28T23:22:05.176Z,101554.79
2023-01-28T23:27:10.841Z,101547.85
2023-01-28T23:32:16.729Z,101545.43
2023-01-28T23:37:23.261Z,101550.26
2023-01-28T23:42:28.816Z,101547.68
2023-01-28T23:47:34.824Z,101541.73
2023-01-28T23:52:40.413Z,101535.59
2023-01-28T23:57:46.285Z,101541.89
